createdAt,value
2018-03-22T00:01:46.677Z,10.10
2018-03-22T00:03:50.120Z,9.97
2018-03-22T00:05:52.738Z,9.53
2018-03-22T00:07:55.439Z,8.77
2018-03-22T00:09:58.829Z,9.77
2018-03-22T00:12:02.263Z,7.77
2018-03-22T00:14:05.032Z,8.53
2018-03-22T00:16:07.655Z,8.93
2018-03-22T00:18:10.285Z,8.20
2018-03-22T00:20:12.887Z,10.40
2018-03-22T00:22:38.162Z,10.33
2018-03-22T00:24:40.881Z,10.37
2018-03-22T00:26:43.525Z,11.43
2018-03-22T00:28:46.415Z,8.90
2018-03-22T00:30:49.104Z,10.77
2018-03-22T00:32:51.757Z,9.77
2018-03-22T00:34:54.426Z,10.13
2018-03-22T00:36:57.036Z,10.80
2018-03-22T00:38:59.649Z,10.77
2018-03-22T00:41:02.297Z,10.83
2018-03-22T00:43:04.943Z,10.97
2018-03-22T00:45:07.653Z,9.43
2018-03-22T00:47:10.277Z,12.63
2018-03-22T00:49:12.947Z,9.87
2018-03-22T00:51:15.620Z,10.20
2018-03-22T00:53:18.298Z,14.47
2018-03-22T00:55:20.950Z,9.47
2018-03-22T00:57:24.394Z,12.70
2018-03-22T00:59:27.018Z,10.53
2018-03-22T01:01:29.686Z,10.53
2018-03-22T01:03:32.319Z,11.03
2018-03-22T01:05:34.971Z,14.17
2018-03-22T01:07:37.666Z,11.03
2018-03-22T01:09:40.447Z,11.87
2018-03-22T01:11:43.089Z,11.33
2018-03-22T01:13:46.661Z,10.50
2018-03-22T01:15:49.345Z,10.60
2018-03-22T01:17:52.994Z,11.80
2018-03-22T01:19:55.613Z,11.07
2018-03-22T01:21:58.314Z,15.97
2018-03-22T01:24:01.773Z,11.93
2018-03-22T01:26:05.343Z,12.53
2018-03-22T01:28:08.092Z,10.57
2018-03-22T01:30:23.402Z,11.30
2018-03-22T01:32:26.045Z,15.03
2018-03-22T01:34:28.822Z,10.07
2018-03-22T01:36:31.536Z,12.20
2018-03-22T01:38:34.203Z,12.73
2018-03-22T01:40:36.835Z,12.37
2018-03-22T01:42:40.233Z,12.00
2018-03-22T01:44:42.862Z,11.23
2018-03-22T01:46:45.487Z,13.63
2018-03-22T01:48:48.968Z,15.60
2018-03-22T01:50:51.647Z,12.77
2018-03-22T01:53:06.727Z,11.67
2018-03-22T01:55:10.350Z,11.63
2018-03-22T01:57:12.986Z,12.80
2018-03-22T01:59:15.634Z,12.60
2018-03-22T02:01:18.243Z,16.00
2018-03-22T02:03:21.652Z,11.87
2018-03-22T02:05:24.332Z,13.67
2018-03-22T02:07:26.931Z,11.37
2018-03-22T02:09:29.687Z,10.40
2018-03-22T02:11:32.361Z,11.17
2018-03-22T02:13:35.022Z,15.63
2018-03-22T02:15:38.464Z,14.93
2018-03-22T02:17:41.169Z,14.53
2018-03-22T02:19:44.120Z,16.63
2018-03-22T02:21:46.847Z,12.13
2018-03-22T02:23:50.213Z,11.33
2018-03-22T02:25:53.679Z,12.83
2018-03-22T02:27:56.358Z,11.20
2018-03-22T02:29:59.027Z,12.77
2018-03-22T02:32:01.740Z,16.10
2018-03-22T02:34:04.438Z,11.43
2018-03-22T02:36:07.856Z,12.47
2018-03-22T02:38:10.608Z,13.70
2018-03-22T02:40:13.321Z,11.83
2018-03-22T02:42:16.695Z,13.00
2018-03-22T02:44:20.069Z,10.30
2018-03-22T02:46:23.531Z,11.00
2018-03-22T02:48:26.190Z,12.33
2018-03-22T02:50:28.828Z,11.93
2018-03-22T02:52:31.442Z,10.60
2018-03-22T02:54:34.064Z,10.50
2018-03-22T02:56:36.719Z,9.67
2018-03-22T02:58:39.357Z,16.00
2018-03-22T03:00:42.041Z,12.00
2018-03-22T03:02:44.697Z,10.97
2018-03-22T03:04:47.347Z,11.63
2018-03-22T03:06:50.773Z,12.17
2018-03-22T03:08:53.390Z,12.20
2018-03-22T03:10:56.041Z,9.20
2018-03-22T03:12:58.688Z,13.17
2018-03-22T03:15:01.363Z,9.43
2018-03-22T03:17:04.026Z,10.90
2018-03-22T03:19:07.438Z,10.87
2018-03-22T03:21:10.050Z,11.57
2018-03-22T03:23:12.696Z,10.63
2018-03-22T03:25:15.327Z,11.23
2018-03-22T03:27:17.972Z,10.83
2018-03-22T03:29:20.625Z,9.97
2018-03-22T03:31:23.252Z,10.37
2018-03-22T03:33:26.871Z,12.00
2018-03-22T03:35:30.258Z,12.37
2018-03-22T03:37:33.704Z,9.43
2018-03-22T03:39:36.374Z,10.07
2018-03-22T03:41:39.010Z,10.20
2018-03-22T03:43:41.654Z,11.07
2018-03-22T03:45:44.374Z,10.40
2018-03-22T03:47:46.986Z,8.90
2018-03-22T03:49:49.644Z,11.17
2018-03-22T03:51:52.268Z,11.80
2018-03-22T03:53:54.936Z,10.90
2018-03-22T03:55:57.586Z,13.67
2018-03-22T03:58:00.189Z,13.23
2018-03-22T04:00:02.888Z,14.97
2018-03-22T04:02:05.571Z,13.53
2018-03-22T04:04:09.004Z,12.13
2018-03-22T04:06:11.681Z,11.63
2018-03-22T04:08:14.310Z,13.57
2018-03-22T04:10:17.696Z,10.33
2018-03-22T04:12:21.099Z,10.77
2018-03-22T04:14:23.729Z,13.53
2018-03-22T04:16:26.406Z,10.73
2018-03-22T04:18:29.071Z,12.80
2018-03-22T04:20:31.707Z,10.43
2018-03-22T04:22:35.137Z,12.83
2018-03-22T04:24:37.752Z,16.27
2018-03-22T04:26:40.440Z,13.83
2018-03-22T04:28:43.145Z,10.97
2018-03-22T04:30:45.837Z,11.83
2018-03-22T04:32:48.518Z,14.43
2018-03-22T04:34:51.247Z,9.47
2018-03-22T04:36:54.742Z,12.27
2018-03-22T04:38:57.414Z,11.10
2018-03-22T04:41:00.832Z,9.83
2018-03-22T04:43:03.495Z,10.97
2018-03-22T04:45:06.885Z,9.90
2018-03-22T04:47:10.282Z,9.07
2018-03-22T04:49:13.717Z,11.57
2018-03-22T04:51:16.402Z,15.17
2018-03-22T04:53:19.064Z,16.07
2018-03-22T04:55:21.706Z,12.13
2018-03-22T04:57:25.080Z,11.10
2018-03-22T04:59:27.731Z,10.93
2018-03-22T05:01:30.354Z,9.37
2018-03-22T05:03:33.827Z,12.07
2018-03-22T05:05:36.468Z,9.63
2018-03-22T05:07:39.079Z,18.77
2018-03-22T05:09:41.788Z,12.80
2018-03-22T05:11:44.471Z,9.77
2018-03-22T05:13:47.876Z,11.17
2018-03-22T05:15:50.560Z,9.13
2018-03-22T05:17:53.252Z,12.87
2018-03-22T05:19:56.144Z,11.23
2018-03-22T05:21:58.927Z,14.57
2018-03-22T05:24:01.618Z,11.87
2018-03-22T05:26:05.043Z,14.70
2018-03-22T05:28:07.781Z,15.37
2018-03-22T05:30:11.368Z,12.17
2018-03-22T05:32:14.042Z,10.40
2018-03-22T05:34:16.702Z,16.10
2018-03-22T05:36:19.383Z,12.60
2018-03-22T05:38:21.989Z,17.47
2018-03-22T05:40:24.674Z,12.17
2018-03-22T05:42:28.126Z,17.13
2018-03-22T05:44:30.794Z,12.93
2018-03-22T05:46:33.446Z,13.17
2018-03-22T05:48:36.069Z,12.70
2018-03-22T05:50:38.692Z,11.17
2018-03-22T05:52:41.319Z,14.53
2018-03-22T05:54:44.047Z,12.77
2018-03-22T05:56:46.644Z,13.23
2018-03-22T05:58:49.313Z,16.07
2018-03-22T06:00:52.171Z,17.33
2018-03-22T06:02:54.782Z,15.27
2018-03-22T06:04:57.464Z,17.10
2018-03-22T06:07:00.106Z,9.60
2018-03-22T06:09:02.751Z,11.33
2018-03-22T06:11:06.193Z,12.23
2018-03-22T06:13:08.899Z,16.83
2018-03-22T06:15:11.540Z,16.80
2018-03-22T06:17:14.258Z,14.00
2018-03-22T06:19:16.937Z,20.30
2018-03-22T06:21:19.574Z,12.20
2018-03-22T06:23:22.185Z,17.27
2018-03-22T06:25:24.793Z,14.23
2018-03-22T06:27:27.458Z,14.33
2018-03-22T06:29:30.843Z,18.70
2018-03-22T06:31:34.254Z,18.77
2018-03-22T06:33:37.646Z,20.33
2018-03-22T06:35:41.026Z,16.27
2018-03-22T06:37:43.802Z,20.03
2018-03-22T06:39:47.172Z,17.40
2018-03-22T06:41:49.915Z,19.73
2018-03-22T06:43:52.576Z,15.87
2018-03-22T06:45:55.209Z,26.33
2018-03-22T06:47:58.652Z,22.20
2018-03-22T06:50:01.251Z,21.03
2018-03-22T06:52:03.945Z,18.63
2018-03-22T06:54:06.555Z,24.47
2018-03-22T06:56:10.069Z,20.53
2018-03-22T06:58:12.784Z,16.67
2018-03-22T07:00:15.480Z,20.07
2018-03-22T07:02:18.937Z,21.97
2018-03-22T07:04:21.587Z,24.37
2018-03-22T07:06:24.337Z,20.73
2018-03-22T07:08:27.080Z,18.77
2018-03-22T07:10:29.738Z,15.60
2018-03-22T07:12:32.387Z,24.27
2018-03-22T07:14:35.780Z,22.83
2018-03-22T07:16:39.154Z,21.17
2018-03-22T07:18:41.822Z,16.33
2018-03-22T07:20:44.607Z,23.43
2018-03-22T07:22:47.219Z,17.20
2018-03-22T07:24:49.854Z,26.13
2018-03-22T07:26:52.538Z,22.37
2018-03-22T07:28:55.213Z,15.40
2018-03-22T07:30:58.611Z,18.87
2018-03-22T07:33:02.065Z,16.50
2018-03-22T07:35:04.846Z,21.47
2018-03-22T07:37:07.518Z,18.13
2018-03-22T07:39:10.162Z,16.03
2018-03-22T07:41:12.811Z,14.90
2018-03-22T07:43:21.628Z,21.03
2018-03-22T07:45:24.266Z,21.43
2018-03-22T07:47:26.910Z,15.73
2018-03-22T07:49:29.550Z,14.27
2018-03-22T07:51:32.200Z,20.63
2018-03-22T07:53:34.810Z,21.53
2018-03-22T07:55:38.254Z,15.70
2018-03-22T07:57:40.866Z,13.53
2018-03-22T07:59:43.500Z,18.37
2018-03-22T08:01:46.145Z,17.77
2018-03-22T08:03:48.852Z,17.23
2018-03-22T08:05:52.440Z,17.67
2018-03-22T08:07:55.718Z,14.13
2018-03-22T08:09:58.313Z,22.30
2018-03-22T08:12:00.946Z,17.30
2018-03-22T08:14:04.302Z,15.13
2018-03-22T08:16:07.698Z,13.73
2018-03-22T08:18:10.358Z,13.87
2018-03-22T08:20:12.980Z,18.40
2018-03-22T08:22:16.459Z,18.00
2018-03-22T08:24:19.080Z,13.77
2018-03-22T08:26:21.823Z,15.43
2018-03-22T08:28:24.466Z,12.33
2018-03-22T08:30:27.089Z,14.07
2018-03-22T08:32:30.459Z,16.13
2018-03-22T08:34:33.105Z,12.67
2018-03-22T08:36:35.723Z,84.30
2018-03-22T08:38:39.174Z,14.27
2018-03-22T08:40:42.922Z,11.50
2018-03-22T08:42:46.371Z,13.93
2018-03-22T08:44:49.003Z,15.43
2018-03-22T08:46:51.722Z,10.83
2018-03-22T08:48:54.412Z,12.33
2018-03-22T08:50:57.082Z,10.63
2018-03-22T08:52:59.692Z,12.50
2018-03-22T08:55:03.092Z,12.53
2018-03-22T08:57:06.486Z,14.43
2018-03-22T08:59:09.892Z,20.23
2018-03-22T09:01:12.539Z,12.47
2018-03-22T09:03:15.214Z,14.63
2018-03-22T09:05:17.856Z,12.57
2018-03-22T09:07:20.471Z,14.27
2018-03-22T09:09:23.905Z,15.63
2018-03-22T09:11:27.621Z,15.57
2018-03-22T09:13:30.259Z,18.40
2018-03-22T09:15:33.088Z,14.03
2018-03-22T09:17:35.758Z,18.57
2018-03-22T09:19:38.375Z,8.77
2018-03-22T09:21:42.447Z,11.60
2018-03-22T09:23:45.092Z,12.03
2018-03-22T09:25:47.796Z,10.10
2018-03-22T09:27:52.334Z,12.47
2018-03-22T09:29:55.557Z,8.50
2018-03-22T09:31:58.317Z,8.07
2018-03-22T09:34:01.273Z,8.57
2018-03-22T09:36:04.658Z,6.20
2018-03-22T09:38:07.343Z,6.23
2018-03-22T09:40:09.945Z,5.30
2018-03-22T09:42:12.615Z,8.27
2018-03-22T09:44:15.241Z,6.50
2018-03-22T09:46:17.843Z,8.70
2018-03-22T09:48:20.478Z,8.03
2018-03-22T09:50:23.241Z,6.70
2018-03-22T09:52:26.667Z,6.23
2018-03-22T09:54:29.293Z,5.30
2018-03-22T09:56:31.903Z,7.00
2018-03-22T09:58:34.782Z,5.90
2018-03-22T10:00:37.390Z,7.07
2018-03-22T10:02:40.005Z,5.50
2018-03-22T10:04:43.397Z,8.97
2018-03-22T10:06:46.075Z,5.57
2018-03-22T10:08:50.635Z,9.13
2018-03-22T10:10:53.266Z,5.47
2018-03-22T10:12:55.888Z,4.53
2018-03-22T10:14:58.599Z,5.83
2018-03-22T10:17:01.224Z,6.17
2018-03-22T10:19:03.835Z,5.43
2018-03-22T10:21:06.478Z,7.60
2018-03-22T10:23:09.944Z,6.37
2018-03-22T10:25:13.343Z,5.13
2018-03-22T10:27:16.064Z,4.57
2018-03-22T10:29:18.695Z,4.63
2018-03-22T10:31:22.082Z,4.10
2018-03-22T10:33:25.546Z,7.07
2018-03-22T10:35:28.261Z,7.53
2018-03-22T10:37:31.662Z,6.63
2018-03-22T10:39:34.401Z,8.83
2018-03-22T10:41:37.034Z,10.73
2018-03-22T10:43:39.657Z,5.70
2018-03-22T10:45:42.290Z,6.17
2018-03-22T10:47:45.001Z,9.07
2018-03-22T10:49:48.424Z,8.67
2018-03-22T10:51:51.067Z,10.93
2018-03-22T10:53:53.714Z,6.10
2018-03-22T10:55:56.326Z,12.20
2018-03-22T10:57:58.968Z,9.70
2018-03-22T11:00:01.598Z,6.97
2018-03-22T11:02:04.997Z,6.73
2018-03-22T11:04:08.376Z,8.83
2018-03-22T11:06:10.984Z,10.93
2018-03-22T11:08:13.638Z,8.27
2018-03-22T11:10:17.030Z,6.87
2018-03-22T11:12:20.440Z,5.97
2018-03-22T11:14:23.078Z,8.77
2018-03-22T11:16:26.566Z,7.87
2018-03-22T11:18:29.264Z,7.03
2018-03-22T11:20:32.016Z,6.80
2018-03-22T11:22:34.711Z,7.03
2018-03-22T11:24:37.335Z,7.50
2018-03-22T11:26:40.024Z,8.70
2018-03-22T11:28:42.650Z,8.20
2018-03-22T11:30:46.060Z,8.47
2018-03-22T11:32:49.443Z,7.10
2018-03-22T11:34:52.839Z,7.80
2018-03-22T11:36:55.471Z,11.23
2018-03-22T11:38:58.086Z,8.87
2018-03-22T11:41:01.501Z,8.63
2018-03-22T11:43:04.906Z,11.70
2018-03-22T11:45:07.566Z,8.87
2018-03-22T11:47:10.214Z,8.47
2018-03-22T11:49:12.871Z,10.43
2018-03-22T11:51:15.562Z,8.47
2018-03-22T11:53:18.178Z,11.77
2018-03-22T11:55:20.860Z,14.97
2018-03-22T11:57:23.727Z,9.90
2018-03-22T11:59:26.437Z,8.37
2018-03-22T12:01:29.153Z,12.33
2018-03-22T12:03:31.786Z,12.57
2018-03-22T12:05:34.475Z,9.13
2018-03-22T12:07:37.123Z,9.47
2018-03-22T12:09:39.742Z,9.80
2018-03-22T12:11:42.373Z,11.47
2018-03-22T12:13:45.016Z,11.70
2018-03-22T12:15:48.526Z,11.10
2018-03-22T12:17:51.377Z,9.23
2018-03-22T12:19:54.822Z,11.60
2018-03-22T12:21:57.517Z,11.07
2018-03-22T12:24:00.162Z,10.33
2018-03-22T12:26:02.818Z,11.27
2018-03-22T12:28:06.296Z,11.27
2018-03-22T12:30:08.935Z,11.50
2018-03-22T12:32:11.560Z,10.33
2018-03-22T12:34:15.006Z,14.13
2018-03-22T12:36:17.625Z,13.17
2018-03-22T12:38:21.075Z,12.87
2018-03-22T12:40:23.778Z,12.73
2018-03-22T12:42:27.914Z,11.07
2018-03-22T12:44:30.639Z,12.50
2018-03-22T12:46:33.333Z,10.90
2018-03-22T12:48:35.951Z,10.90
2018-03-22T12:50:39.428Z,11.50
2018-03-22T12:52:42.886Z,17.50
2018-03-22T12:54:46.339Z,10.93
2018-03-22T12:56:48.939Z,9.30
2018-03-22T12:58:51.951Z,12.33
2018-03-22T13:00:54.582Z,9.20
2018-03-22T13:02:57.231Z,11.57
2018-03-22T13:05:00.596Z,11.77
2018-03-22T13:07:03.206Z,13.67
2018-03-22T13:09:06.599Z,9.87
2018-03-22T13:11:09.989Z,9.80
2018-03-22T13:13:13.358Z,10.03
2018-03-22T13:15:15.998Z,8.67
2018-03-22T13:17:18.619Z,9.43
2018-03-22T13:19:21.258Z,9.97
2018-03-22T13:21:23.870Z,11.40
2018-03-22T13:23:26.496Z,11.47
2018-03-22T13:25:29.139Z,13.23
2018-03-22T13:27:31.746Z,11.57
2018-03-22T13:29:34.380Z,11.53
2018-03-22T13:31:37.827Z,10.73
2018-03-22T13:33:40.474Z,13.30
2018-03-22T13:35:43.111Z,9.57
2018-03-22T13:37:45.699Z,11.40
2018-03-22T13:39:48.540Z,11.77
2018-03-22T13:41:51.164Z,11.47
2018-03-22T13:43:54.556Z,13.17
2018-03-22T13:45:58.759Z,12.47
2018-03-22T13:48:01.402Z,10.37
2018-03-22T13:50:04.066Z,16.07
2018-03-22T13:52:06.699Z,10.80
2018-03-22T13:54:09.317Z,12.87
2018-03-22T13:56:11.927Z,11.90
2018-03-22T13:58:14.611Z,10.30
2018-03-22T14:00:18.034Z,11.00
2018-03-22T14:02:20.647Z,12.43
2018-03-22T14:04:23.275Z,12.40
2018-03-22T14:06:26.022Z,11.33
2018-03-22T14:08:28.769Z,13.37
2018-03-22T14:10:31.386Z,12.30
2018-03-22T14:12:34.032Z,11.33
2018-03-22T14:14:36.834Z,11.07
2018-03-22T14:16:39.446Z,13.23
2018-03-22T14:18:42.123Z,19.03
2018-03-22T14:20:44.763Z,11.33
2018-03-22T14:22:48.159Z,11.60
2018-03-22T14:24:51.563Z,13.27
2018-03-22T14:26:54.992Z,11.70
2018-03-22T14:28:58.544Z,12.20
2018-03-22T14:31:01.922Z,12.20
2018-03-22T14:33:04.552Z,12.17
2018-03-22T14:35:07.266Z,15.57
2018-03-22T14:37:09.864Z,18.00
2018-03-22T14:39:13.403Z,13.50
2018-03-22T14:41:16.078Z,12.50
2018-03-22T14:43:18.718Z,13.83
2018-03-22T14:45:22.117Z,15.67
2018-03-22T14:47:25.520Z,18.07
2018-03-22T14:49:28.178Z,12.20
2018-03-22T14:51:31.563Z,14.80
2018-03-22T14:53:34.957Z,10.47
2018-03-22T14:55:38.385Z,18.17
2018-03-22T14:57:41.020Z,18.23
2018-03-22T14:59:44.422Z,14.80
2018-03-22T15:01:47.070Z,14.50
2018-03-22T15:03:49.711Z,12.17
2018-03-22T15:05:52.353Z,12.83
2018-03-22T15:07:55.793Z,18.57
2018-03-22T15:09:58.433Z,13.00
2018-03-22T15:12:01.079Z,25.07
2018-03-22T15:14:03.711Z,20.20
2018-03-22T15:16:06.371Z,14.40
2018-03-22T15:18:09.069Z,14.73
2018-03-22T15:20:11.720Z,14.03
2018-03-22T15:22:14.398Z,13.33
2018-03-22T15:24:17.014Z,13.43
2018-03-22T15:26:19.647Z,12.83
2018-03-22T15:28:22.315Z,15.47
2018-03-22T15:30:24.974Z,33.17
2018-03-22T15:32:28.381Z,18.53
2018-03-22T15:34:31.014Z,22.63
2018-03-22T15:36:33.644Z,20.47
2018-03-22T15:38:36.297Z,19.50
2018-03-22T15:40:39.731Z,17.17
2018-03-22T15:42:42.359Z,18.17
2018-03-22T15:44:45.018Z,16.43
2018-03-22T15:46:47.678Z,17.37
2018-03-22T15:48:50.302Z,24.00
2018-03-22T15:50:53.734Z,17.77
2018-03-22T15:52:56.350Z,17.10
2018-03-22T15:54:59.043Z,23.23
2018-03-22T15:57:02.410Z,15.63
2018-03-22T15:59:05.043Z,16.73
2018-03-22T16:01:07.738Z,14.00
2018-03-22T16:03:10.390Z,15.50
2018-03-22T16:05:13.109Z,24.53
2018-03-22T16:07:15.739Z,19.83
2018-03-22T16:09:18.477Z,14.97
2018-03-22T16:11:21.111Z,16.53
2018-03-22T16:13:23.851Z,15.27
2018-03-22T16:15:27.277Z,14.40
2018-03-22T16:17:30.644Z,17.17
2018-03-22T16:19:33.243Z,15.90
2018-03-22T16:21:35.872Z,16.37
2018-03-22T16:23:38.462Z,18.77
2018-03-22T16:25:41.883Z,18.20
2018-03-22T16:27:44.541Z,15.07
2018-03-22T16:29:47.171Z,14.60
2018-03-22T16:31:49.835Z,11.37
2018-03-22T16:33:52.449Z,14.80
2018-03-22T16:35:55.894Z,16.43
2018-03-22T16:37:58.523Z,12.33
2018-03-22T16:40:01.912Z,12.80
2018-03-22T16:42:05.285Z,18.43
2018-03-22T16:44:07.937Z,16.63
2018-03-22T16:46:10.569Z,17.80
2018-03-22T16:48:14.435Z,15.70
2018-03-22T16:50:17.060Z,16.43
2018-03-22T16:52:19.677Z,17.10
2018-03-22T16:54:22.318Z,20.43
2018-03-22T16:56:24.970Z,18.77
2018-03-22T16:58:28.401Z,19.10
2018-03-22T17:00:31.849Z,17.80
2018-03-22T17:02:34.561Z,17.60
2018-03-22T17:04:37.178Z,19.67
2018-03-22T17:06:39.793Z,16.77
2018-03-22T17:08:42.439Z,22.10
2018-03-22T17:10:45.077Z,18.57
2018-03-22T17:12:47.766Z,17.83
2018-03-22T17:14:50.432Z,20.47
2018-03-22T17:16:53.158Z,22.10
2018-03-22T17:18:55.859Z,17.83
2018-03-22T17:20:58.511Z,17.07
2018-03-22T17:23:01.205Z,21.90
2018-03-22T17:25:03.810Z,21.13
2018-03-22T17:27:06.446Z,19.17
2018-03-22T17:29:09.847Z,22.70
2018-03-22T17:31:12.481Z,21.63
2018-03-22T17:33:15.110Z,18.60
2018-03-22T17:35:17.834Z,17.40
2018-03-22T17:37:20.459Z,21.60
2018-03-22T17:39:23.163Z,24.77
2018-03-22T17:41:25.819Z,20.83
2018-03-22T17:43:28.446Z,23.20
2018-03-22T17:45:31.837Z,21.63
2018-03-22T17:47:35.267Z,21.20
2018-03-22T17:49:38.006Z,19.10
2018-03-22T17:51:40.657Z,23.53
2018-03-22T17:53:43.287Z,24.20
2018-03-22T17:55:45.933Z,22.33
2018-03-22T17:57:48.552Z,28.00
2018-03-22T17:59:51.279Z,21.07
2018-03-22T18:01:53.987Z,22.33
2018-03-22T18:03:57.393Z,21.17
2018-03-22T18:06:00.157Z,20.63
2018-03-22T18:08:02.856Z,18.50
2018-03-22T18:10:05.531Z,25.67
2018-03-22T18:12:08.172Z,19.87
2018-03-22T18:14:13.097Z,24.97
2018-03-22T18:16:16.558Z,26.47
2018-03-22T18:18:19.262Z,24.93
2018-03-22T18:20:22.724Z,22.87
2018-03-22T18:22:25.412Z,31.23
2018-03-22T18:24:28.876Z,26.97
2018-03-22T18:26:31.574Z,24.97
2018-03-22T18:28:34.271Z,24.87
2018-03-22T18:30:37.049Z,23.87
2018-03-22T18:32:40.014Z,20.00
2018-03-22T18:34:42.956Z,25.20
2018-03-22T18:36:45.729Z,23.90
2018-03-22T18:38:49.390Z,24.33
2018-03-22T18:40:52.173Z,23.43
2018-03-22T18:42:54.986Z,23.87
2018-03-22T18:44:57.763Z,22.47
2018-03-22T18:47:01.327Z,22.30
2018-03-22T18:49:15.993Z,23.70
2018-03-22T18:51:20.633Z,24.90
2018-03-22T18:53:23.265Z,22.47
2018-03-22T18:55:25.921Z,26.37
2018-03-22T18:57:28.623Z,26.37
2018-03-22T18:59:31.294Z,24.63
2018-03-22T19:01:33.932Z,26.37
2018-03-22T19:03:36.686Z,23.37
2018-03-22T19:05:39.444Z,24.67
2018-03-22T19:07:42.074Z,22.20
2018-03-22T19:09:44.683Z,26.13
2018-03-22T19:11:47.347Z,28.10
2018-03-22T19:13:50.126Z,26.17
2018-03-22T19:15:52.772Z,26.07
2018-03-22T19:17:56.176Z,21.90
2018-03-22T19:19:58.856Z,23.97
2018-03-22T19:22:01.554Z,24.13
2018-03-22T19:24:04.172Z,23.33
2018-03-22T19:26:06.878Z,23.97
2018-03-22T19:28:09.517Z,24.73
2018-03-22T19:30:12.229Z,35.60
2018-03-22T19:32:14.861Z,27.40
2018-03-22T19:34:17.522Z,30.47
2018-03-22T19:36:20.159Z,26.80
2018-03-22T19:38:22.814Z,35.90
2018-03-22T19:40:25.471Z,31.30
2018-03-22T19:42:28.126Z,27.90
2018-03-22T19:44:30.787Z,24.07
2018-03-22T19:46:33.441Z,25.87
2018-03-22T19:48:36.106Z,26.60
2018-03-22T19:50:38.833Z,28.57
2018-03-22T19:52:41.478Z,26.23
2018-03-22T19:54:44.973Z,30.07
2018-03-22T19:56:47.606Z,28.60
2018-03-22T19:58:50.259Z,31.67
2018-03-22T20:00:52.916Z,29.97
2018-03-22T20:02:55.589Z,30.77
2018-03-22T20:04:58.262Z,29.13
2018-03-22T20:07:00.920Z,30.90
2018-03-22T20:09:03.967Z,30.93
2018-03-22T20:11:07.616Z,26.13
2018-03-22T20:13:10.278Z,27.47
2018-03-22T20:15:13.013Z,30.77
2018-03-22T20:17:16.515Z,24.70
2018-03-22T20:19:19.217Z,27.47
2018-03-22T20:21:21.881Z,28.17
2018-03-22T20:23:25.354Z,30.20
2018-03-22T20:25:28.025Z,32.60
2018-03-22T20:27:30.722Z,29.33
2018-03-22T20:29:33.362Z,28.43
2018-03-22T20:31:36.041Z,27.83
2018-03-22T20:33:38.821Z,30.63
2018-03-22T20:35:41.466Z,30.13
2018-03-22T20:37:44.181Z,30.53
2018-03-22T20:39:46.817Z,28.13
2018-03-22T20:41:49.517Z,26.53
2018-03-22T20:43:52.166Z,24.40
2018-03-22T20:45:54.845Z,29.73
2018-03-22T20:47:57.546Z,30.23
2018-03-22T20:50:01.559Z,31.63
2018-03-22T20:52:04.201Z,33.83
2018-03-22T20:54:07.171Z,30.00
2018-03-22T20:56:09.937Z,31.70
2018-03-22T20:58:12.661Z,32.80
2018-03-22T21:00:15.342Z,31.47
2018-03-22T21:02:18.254Z,33.33
2018-03-22T21:04:21.124Z,32.47
2018-03-22T21:06:24.174Z,29.97
2018-03-22T21:08:27.045Z,29.70
2018-03-22T21:10:29.966Z,30.90
2018-03-22T21:12:32.923Z,31.77
2018-03-22T21:14:35.635Z,33.60
2018-03-22T21:16:38.281Z,32.67
2018-03-22T21:18:40.953Z,34.17
2018-03-22T21:20:43.646Z,33.40
2018-03-22T21:22:47.229Z,37.20
2018-03-22T21:24:50.003Z,88.00
2018-03-22T21:26:53.460Z,40.33
2018-03-22T21:28:56.872Z,33.93
2018-03-22T21:31:00.331Z,31.23
2018-03-22T21:33:02.946Z,35.97
2018-03-22T21:35:05.615Z,31.77
2018-03-22T21:37:08.526Z,33.90
2018-03-22T21:39:11.186Z,34.43
2018-03-22T21:41:13.924Z,33.17
2018-03-22T21:43:18.364Z,34.17
2018-03-22T21:45:21.023Z,30.50
2018-03-22T21:47:31.567Z,30.57
2018-03-22T21:49:34.223Z,31.23
2018-03-22T21:51:36.872Z,30.67
2018-03-22T21:53:39.504Z,32.17
2018-03-22T21:55:42.187Z,30.87
2018-03-22T21:57:44.794Z,32.20
2018-03-22T21:59:47.483Z,29.97
2018-03-22T22:01:50.128Z,29.63
2018-03-22T22:03:53.568Z,29.83
2018-03-22T22:05:56.206Z,28.90
2018-03-22T22:07:58.827Z,27.90
2018-03-22T22:10:01.490Z,28.67
2018-03-22T22:12:04.942Z,32.53
2018-03-22T22:14:08.354Z,26.50
2018-03-22T22:16:10.979Z,27.10
2018-03-22T22:18:13.578Z,24.53
2018-03-22T22:20:16.975Z,22.13
2018-03-22T22:22:20.362Z,20.60
2018-03-22T22:24:23.000Z,22.30
2018-03-22T22:26:25.657Z,21.97
2018-03-22T22:28:28.279Z,20.17
2018-03-22T22:30:31.044Z,21.80
2018-03-22T22:32:33.667Z,21.33
2018-03-22T22:34:36.290Z,21.60
2018-03-22T22:36:39.069Z,23.10
2018-03-22T22:38:41.820Z,21.20
2018-03-22T22:40:44.429Z,24.00
2018-03-22T22:42:47.095Z,23.30
2018-03-22T22:44:49.729Z,22.33
2018-03-22T22:46:52.353Z,24.90
2018-03-22T22:48:54.998Z,24.50
2018-03-22T22:50:57.610Z,26.63
2018-03-22T22:53:00.246Z,24.10
2018-03-22T22:55:02.861Z,27.83
2018-03-22T22:57:05.465Z,27.70
2018-03-22T22:59:08.859Z,25.00
2018-03-22T23:01:12.338Z,26.30
2018-03-22T23:03:15.757Z,28.27
2018-03-22T23:05:18.407Z,30.00
2018-03-22T23:07:21.780Z,31.57
2018-03-22T23:09:24.794Z,24.33
2018-03-22T23:11:28.182Z,30.17
2018-03-22T23:13:31.611Z,29.27
2018-03-22T23:15:34.250Z,28.67
2018-03-22T23:17:37.622Z,36.73
2018-03-22T23:19:40.232Z,34.70
2018-03-22T23:21:43.627Z,32.03
2018-03-22T23:23:46.280Z,33.60
2018-03-22T23:25:49.687Z,32.87
2018-03-22T23:27:53.075Z,32.23
2018-03-22T23:29:56.456Z,33.50
2018-03-22T23:31:59.144Z,31.73
2018-03-22T23:34:02.528Z,33.33
2018-03-22T23:36:05.173Z,30.37
2018-03-22T23:38:07.766Z,32.90
2018-03-22T23:40:10.522Z,33.03
2018-03-22T23:42:13.183Z,33.90
2018-03-22T23:44:15.787Z,33.10
2018-03-22T23:46:18.442Z,33.57
2018-03-22T23:48:21.075Z,32.67
2018-03-22T23:50:24.506Z,36.43
2018-03-22T23:52:27.141Z,35.33
2018-03-22T23:54:30.558Z,29.40
2018-03-22T23:56:33.580Z,35.23
2018-03-22T23:58:36.202Z,30.53
